• Join FlightAware (Why Join?)
  • Login
  • US Flag 
05:11PM EDT


 

Airport Tracker/Info


-or-


 

Live Flight TrackerFlight Track Log ✈ MRA637 ✈ 04-May-2012 ✈ KWWR - KWDG

Flight Track Log - Related Links

Times and Time Zones

All times are in EDT time to prevent confusion due to time zone crossing. See the MRA637 flight status page for this flight to view local times or setup timezone preferences in your user account.

Time Position Orientation Groundspeed Altitude Reporting Facility
EDT Latitude Longitude Course Direction KTS MPH feet Rate Location/Type
08:23PM 36.4364 -99.4347 94° East 159 183 4,300  Level Kansas City Center
08:24PM 36.4342 -99.3933 97° East 137 158 5,000 720 Climbing Kansas City Center
08:25PM 36.4297 -99.3492 91° East 123 142 5,800 840 Climbing Kansas City Center
08:26PM 36.4292 -99.3078 93° East 123 142 6,700 540 Climbing Kansas City Center
08:27PM 36.4272 -99.2561 95° East 123 142 6,900 60 Climbing Kansas City Center
08:28PM 36.4233 -99.1964 92° East 144 166 6,900  Level Kansas City Center
08:29PM 36.4214 -99.1394 90° East 157 181 6,900  Level Kansas City Center
08:30PM 36.4214 -99.0828 92° East 163 188 6,900  Level Kansas City Center
08:31PM 36.4194 -99.0258 90° East 163 188 7,000  Climbing Kansas City Center
08:32PM 36.4194 -98.9689 92° East 163 188 7,000  Level Kansas City Center
08:33PM 36.4175 -98.9122 88° East 163 188 7,000  Level Kansas City Center
08:34PM 36.4192 -98.8606 92° East 158 182 7,000  Level Kansas City Center
08:35PM 36.4172 -98.7986 92° East 158 182 7,000  Level Kansas City Center
08:36PM 36.4153 -98.7417 92° East 158 182 7,000  Level Kansas City Center
08:37PM 36.4133 -98.6794 93° East 158 182 7,000  Level Kansas City Center
08:38PM 36.4111 -98.6228 93° East 158 182 7,000  Level Kansas City Center
08:39PM 36.4089 -98.5631 90° East 163 188 7,000  Level Kansas City Center
08:40PM 36.4089 -98.5039 95° East 163 188 7,000 -180 Level Kansas City Center
08:41PM 36.4044 -98.4442 90° East 163 188 6,700 -420 Descending Kansas City Center
08:42PM 36.4044 -98.3822 93° East 169 194 6,200 -480 Descending Kansas City Center
08:43PM 36.4022 -98.3203 93° East 174 200 5,800 -420 Descending Kansas City Center
08:44PM 36.4000 -98.2608 95° East 174 200 5,400 -420 Descending Kansas City Center
08:45PM 36.3958 -98.1986 90° East 179 206 5,000 -420 Descending Kansas City Center
08:46PM 36.3956 -98.1367 93° East 179 206 4,600 -420 Descending Kansas City Center
08:47PM 36.3931 -98.0772 85° East 179 206 4,200 -360 Descending Kansas City Center
08:48PM 36.3969 -98.0181 93° East 179 206 3,900 -360 Descending Kansas City Center
08:49PM 36.3947 -97.9561 88° East 179 206 3,500 -480 Descending Kansas City Center
08:50PM 36.3964 -97.8942 85° East 179 206 3,000 -540 Descending Kansas City Center
08:51PM 36.4003 -97.8350 91° East 179 206 2,500 -600 Descending Kansas City Center
08:52PM 36.3997 -97.7756 91° East 167 192 1,900 -600 Descending Kansas City Center